createdAt,value
2022-08-26T00:00:09.360Z,85.38
2022-08-26T00:03:00.639Z,85.34
2022-08-26T00:05:28.371Z,85.16
2022-08-26T00:07:57.218Z,85.19
2022-08-26T00:10:25.839Z,85.42
2022-08-26T00:12:53.642Z,85.45
2022-08-26T00:15:22.935Z,85.35
2022-08-26T00:17:53.181Z,85.35
2022-08-26T00:20:27.034Z,85.31
2022-08-26T00:22:55.581Z,85.43
2022-08-26T00:25:23.630Z,85.44
2022-08-26T00:27:52.818Z,85.34
2022-08-26T00:30:26.622Z,85.17
2022-08-26T00:32:55.575Z,85.19
2022-08-26T00:35:28.001Z,85.26
2022-08-26T00:37:57.161Z,85.21
2022-08-26T00:40:36.189Z,85.38
2022-08-26T00:43:09.460Z,85.34
2022-08-26T00:46:06.819Z,85.45
2022-08-26T00:48:37.752Z,85.55
2022-08-26T00:51:18.222Z,85.57
2022-08-26T00:53:55.715Z,85.76
2022-08-26T00:56:38.229Z,85.95
2022-08-26T00:59:11.713Z,85.99
2022-08-26T01:01:44.054Z,85.83
2022-08-26T01:04:20.384Z,85.96
2022-08-26T01:06:52.291Z,86.16
2022-08-26T01:09:22.062Z,86.11
2022-08-26T01:11:55.530Z,85.76
2022-08-26T01:14:29.516Z,85.81
2022-08-26T01:16:57.449Z,85.86
2022-08-26T01:19:42.922Z,85.94
2022-08-26T01:22:26.725Z,85.99
2022-08-26T01:25:00.865Z,85.91
2022-08-26T01:27:36.782Z,86.03
2022-08-26T01:30:06.408Z,86.16
2022-08-26T01:32:36.192Z,86.18
2022-08-26T01:35:08.721Z,86.15
2022-08-26T01:37:39.158Z,86.09
2022-08-26T01:40:18.277Z,86.12
2022-08-26T01:42:49.132Z,86.19
2022-08-26T01:45:25.144Z,85.99
2022-08-26T01:47:57.383Z,85.96
2022-08-26T01:50:32.809Z,86.03
2022-08-26T01:53:07.268Z,86.14
2022-08-26T01:55:41.618Z,86.12
2022-08-26T01:58:21.294Z,86.05
2022-08-26T02:00:50.424Z,85.89
2022-08-26T02:03:22.190Z,85.60
2022-08-26T02:06:09.196Z,85.49
2022-08-26T02:08:52.479Z,85.70
2022-08-26T02:11:21.183Z,85.72
2022-08-26T02:13:54.824Z,85.74
2022-08-26T02:16:27.352Z,85.94
2022-08-26T02:18:59.517Z,86.08
2022-08-26T02:21:28.588Z,86.01
2022-08-26T02:24:20.935Z,86.06
2022-08-26T02:26:49.595Z,86.10
2022-08-26T02:29:32.955Z,86.14
2022-08-26T02:32:00.930Z,86.07
2022-08-26T02:34:33.584Z,86.06
2022-08-26T02:37:06.797Z,86.04
2022-08-26T02:39:37.545Z,85.93
2022-08-26T02:42:07.134Z,85.94
2022-08-26T02:44:36.053Z,85.92
2022-08-26T02:47:04.004Z,85.86
2022-08-26T02:49:33.397Z,85.87
2022-08-26T02:52:01.858Z,85.99
2022-08-26T02:54:29.824Z,86.05
2022-08-26T02:56:57.722Z,86.05
2022-08-26T02:59:25.562Z,86.13
2022-08-26T03:01:56.371Z,86.02
2022-08-26T03:04:25.834Z,85.57
2022-08-26T03:06:55.449Z,85.66
2022-08-26T03:09:24.920Z,85.80
2022-08-26T03:11:53.069Z,85.84
2022-08-26T03:14:23.928Z,85.94
2022-08-26T03:16:54.390Z,86.06
2022-08-26T03:19:25.313Z,86.02
2022-08-26T03:21:58.055Z,86.16
2022-08-26T03:24:26.743Z,86.12
2022-08-26T03:26:54.598Z,86.13
2022-08-26T03:29:42.677Z,86.11
2022-08-26T03:32:11.191Z,86.20
2022-08-26T03:34:38.914Z,86.23
2022-08-26T03:37:06.807Z,86.24
2022-08-26T03:39:34.957Z,86.35
2022-08-26T03:42:02.720Z,86.36
2022-08-26T03:44:31.558Z,86.40
2022-08-26T03:47:00.404Z,86.59
2022-08-26T03:49:28.936Z,86.52
2022-08-26T03:51:56.899Z,86.25
2022-08-26T03:54:24.619Z,86.36
2022-08-26T03:56:52.426Z,86.44
2022-08-26T03:59:21.086Z,86.32
2022-08-26T04:01:49.011Z,86.36
2022-08-26T04:04:16.988Z,86.47
2022-08-26T04:06:44.993Z,86.59
2022-08-26T04:09:20.991Z,86.27
2022-08-26T04:11:50.521Z,86.42
2022-08-26T04:14:23.621Z,86.45
2022-08-26T04:16:53.812Z,86.34
2022-08-26T04:19:25.243Z,86.49
2022-08-26T04:21:54.333Z,86.37
2022-08-26T04:24:25.475Z,86.48
2022-08-26T04:26:53.860Z,86.55
2022-08-26T04:29:25.632Z,86.52
2022-08-26T04:31:56.208Z,86.55
2022-08-26T04:34:28.361Z,86.49
2022-08-26T04:36:57.894Z,86.43
2022-08-26T04:39:27.740Z,86.39
2022-08-26T04:41:57.821Z,86.41
2022-08-26T04:44:30.011Z,86.41
2022-08-26T04:46:58.622Z,86.48
2022-08-26T04:49:27.565Z,86.33
2022-08-26T04:51:55.463Z,86.43
2022-08-26T04:54:23.687Z,86.43
2022-08-26T04:56:54.075Z,86.50
2022-08-26T04:59:21.823Z,86.56
2022-08-26T05:01:52.890Z,86.53
2022-08-26T05:04:21.181Z,86.59
2022-08-26T05:06:50.060Z,86.81
2022-08-26T05:09:18.598Z,86.76
2022-08-26T05:11:48.464Z,86.45
2022-08-26T05:14:23.178Z,86.22
2022-08-26T05:16:52.032Z,86.31
2022-08-26T05:19:19.902Z,86.35
2022-08-26T05:21:49.324Z,86.34
2022-08-26T05:24:18.191Z,86.04
2022-08-26T05:26:47.235Z,85.95
2022-08-26T05:29:16.812Z,85.95
2022-08-26T05:31:44.821Z,85.76
2022-08-26T05:34:13.044Z,86.05
2022-08-26T05:36:41.364Z,86.26
2022-08-26T05:39:10.525Z,86.18
2022-08-26T05:41:42.080Z,86.09
2022-08-26T05:44:14.099Z,86.06
2022-08-26T05:46:44.545Z,86.13
2022-08-26T05:49:15.914Z,86.34
2022-08-26T05:51:47.720Z,86.51
2022-08-26T05:54:21.716Z,86.52
2022-08-26T05:56:51.930Z,86.52
2022-08-26T05:59:23.942Z,86.78
2022-08-26T06:01:54.865Z,86.67
2022-08-26T06:04:27.084Z,86.78
2022-08-26T06:06:57.649Z,86.78
2022-08-26T06:09:26.630Z,86.70
2022-08-26T06:11:55.861Z,86.85
2022-08-26T06:14:23.564Z,86.90
2022-08-26T06:16:51.734Z,86.95
2022-08-26T06:19:20.057Z,87.06
2022-08-26T06:21:54.749Z,87.13
2022-08-26T06:24:41.671Z,87.09
2022-08-26T06:27:13.446Z,87.16
2022-08-26T06:29:41.789Z,86.87
2022-08-26T06:32:09.636Z,86.91
2022-08-26T06:34:37.481Z,86.84
2022-08-26T06:37:06.328Z,86.78
2022-08-26T06:39:34.663Z,86.70
2022-08-26T06:42:06.111Z,86.38
2022-08-26T06:44:35.043Z,86.29
2022-08-26T06:47:02.866Z,86.12
2022-08-26T06:49:30.563Z,85.96
2022-08-26T06:51:58.966Z,85.77
2022-08-26T06:54:31.447Z,85.78
2022-08-26T06:56:59.708Z,85.77
2022-08-26T06:59:27.550Z,85.54
2022-08-26T07:01:55.645Z,85.53
2022-08-26T07:04:24.915Z,85.47
2022-08-26T07:06:56.437Z,85.36
2022-08-26T07:09:29.271Z,85.31
2022-08-26T07:11:57.033Z,85.36
2022-08-26T07:14:26.174Z,85.28
2022-08-26T07:16:55.165Z,85.14
2022-08-26T07:19:30.066Z,85.29
2022-08-26T07:22:05.363Z,85.09
2022-08-26T07:24:38.364Z,85.12
2022-08-26T07:27:12.398Z,84.94
2022-08-26T07:29:43.328Z,84.72
2022-08-26T07:32:14.968Z,84.72
2022-08-26T07:34:43.481Z,84.74
2022-08-26T07:37:11.466Z,84.76
2022-08-26T07:39:41.629Z,84.48
2022-08-26T07:42:15.260Z,84.40
2022-08-26T07:44:45.278Z,84.40
2022-08-26T07:47:25.452Z,84.53
2022-08-26T07:49:57.605Z,84.44
2022-08-26T07:52:29.249Z,84.14
2022-08-26T07:55:00.186Z,84.21
2022-08-26T07:57:29.545Z,84.41
2022-08-26T07:59:58.335Z,83.93
2022-08-26T08:02:29.121Z,84.05
2022-08-26T08:04:58.416Z,84.01
2022-08-26T08:07:45.093Z,84.15
2022-08-26T08:10:20.965Z,84.02
2022-08-26T08:12:51.034Z,83.74
2022-08-26T08:15:27.701Z,83.55
2022-08-26T08:18:00.198Z,82.93
2022-08-26T08:20:29.877Z,82.86
2022-08-26T08:22:57.706Z,83.11
2022-08-26T08:25:25.465Z,82.74
2022-08-26T08:27:53.268Z,82.35
2022-08-26T08:30:23.125Z,82.27
2022-08-26T08:32:52.464Z,82.20
2022-08-26T08:35:22.670Z,81.59
2022-08-26T08:37:54.259Z,80.76
2022-08-26T08:40:27.075Z,80.02
2022-08-26T08:43:25.727Z,79.48
2022-08-26T08:46:16.833Z,79.77
2022-08-26T08:48:56.801Z,79.46
2022-08-26T08:51:45.794Z,78.91
2022-08-26T08:54:14.762Z,78.98
2022-08-26T08:56:53.151Z,78.26
2022-08-26T08:59:38.263Z,77.61
2022-08-26T09:02:38.540Z,77.80
2022-08-26T09:05:31.644Z,77.07
2022-08-26T09:08:06.821Z,76.46
2022-08-26T09:10:50.858Z,75.53
2022-08-26T09:13:25.191Z,76.83
2022-08-26T09:16:20.298Z,77.49
2022-08-26T09:19:05.989Z,77.31
2022-08-26T09:21:34.106Z,77.15
2022-08-26T09:24:01.961Z,76.73
2022-08-26T09:26:45.548Z,76.05
2022-08-26T09:29:33.892Z,76.50
2022-08-26T09:32:26.521Z,75.74
2022-08-26T09:35:02.359Z,73.93
2022-08-26T09:37:33.020Z,73.71
2022-08-26T09:40:27.151Z,74.35
2022-08-26T09:43:22.764Z,74.54
2022-08-26T09:45:59.384Z,73.62
2022-08-26T09:48:36.527Z,73.47
2022-08-26T09:51:26.516Z,72.99
2022-08-26T09:54:02.175Z,72.31
2022-08-26T09:56:35.295Z,71.37
2022-08-26T09:59:10.963Z,71.41
2022-08-26T10:01:42.878Z,71.21
2022-08-26T10:04:26.725Z,71.55
2022-08-26T10:07:02.717Z,71.32
2022-08-26T10:09:39.024Z,70.18
2022-08-26T10:12:13.651Z,69.74
2022-08-26T10:14:49.838Z,70.34
2022-08-26T10:17:40.234Z,69.79
2022-08-26T10:20:23.543Z,67.57
2022-08-26T10:23:16.980Z,68.50
2022-08-26T10:26:05.102Z,69.21
2022-08-26T10:28:49.785Z,69.98
2022-08-26T10:31:41.041Z,68.41
2022-08-26T10:34:12.510Z,68.61
2022-08-26T10:37:14.525Z,68.16
2022-08-26T10:40:13.229Z,67.09
2022-08-26T10:42:51.452Z,67.86
2022-08-26T10:45:26.445Z,66.85
2022-08-26T10:48:08.696Z,66.90
2022-08-26T10:50:43.261Z,64.98
2022-08-26T10:53:25.314Z,65.91
2022-08-26T10:56:32.585Z,65.66
2022-08-26T10:59:06.745Z,65.82
2022-08-26T11:01:52.586Z,64.91
2022-08-26T11:04:48.451Z,63.60
2022-08-26T11:07:46.210Z,63.17
2022-08-26T11:10:16.851Z,63.15
2022-08-26T11:12:49.430Z,61.64
2022-08-26T11:15:24.492Z,62.39
2022-08-26T11:18:12.099Z,60.94
2022-08-26T11:20:47.073Z,59.35
2022-08-26T11:23:22.447Z,59.83
2022-08-26T11:25:55.986Z,59.51
2022-08-26T11:28:50.930Z,59.96
2022-08-26T11:31:25.829Z,58.58
2022-08-26T11:34:00.453Z,60.98
2022-08-26T11:36:57.770Z,61.86
2022-08-26T11:39:49.358Z,61.34
2022-08-26T11:42:42.703Z,59.11
2022-08-26T11:45:27.169Z,58.95
2022-08-26T11:47:55.918Z,58.03
2022-08-26T11:50:28.382Z,56.32
2022-08-26T11:53:06.144Z,55.74
2022-08-26T11:55:41.847Z,54.78
2022-08-26T11:58:12.986Z,55.20
2022-08-26T12:00:51.705Z,53.76
2022-08-26T12:03:35.967Z,52.38
2022-08-26T12:06:14.172Z,53.09
2022-08-26T12:08:44.866Z,53.31
2022-08-26T12:11:24.958Z,52.78
2022-08-26T12:13:58.117Z,52.47
2022-08-26T12:16:33.749Z,53.35
2022-08-26T12:19:02.289Z,52.38
2022-08-26T12:21:34.940Z,50.75
2022-08-26T12:24:04.269Z,52.05
2022-08-26T12:26:36.461Z,53.29
2022-08-26T12:29:19.853Z,52.26
2022-08-26T12:31:48.436Z,52.33
2022-08-26T12:34:18.540Z,52.82
2022-08-26T12:36:53.803Z,52.77
2022-08-26T12:39:33.367Z,51.27
2022-08-26T12:42:03.073Z,51.52
2022-08-26T12:45:03.878Z,50.94
2022-08-26T12:47:42.888Z,50.71
2022-08-26T12:50:34.225Z,50.95
2022-08-26T12:53:21.166Z,51.15
2022-08-26T12:56:03.497Z,50.62
2022-08-26T12:58:35.466Z,50.36
2022-08-26T13:01:08.959Z,49.24
2022-08-26T13:03:43.470Z,48.59
2022-08-26T13:06:21.241Z,48.91
2022-08-26T13:08:59.960Z,48.09
2022-08-26T13:11:41.110Z,46.41
2022-08-26T13:14:21.193Z,46.67
2022-08-26T13:16:53.646Z,47.54
2022-08-26T13:19:29.511Z,47.40
2022-08-26T13:22:00.418Z,48.07
2022-08-26T13:24:40.533Z,47.78
2022-08-26T13:27:12.601Z,46.46
2022-08-26T13:29:41.447Z,46.96
2022-08-26T13:32:09.925Z,46.50
2022-08-26T13:34:38.906Z,47.22
2022-08-26T13:37:07.245Z,47.58
2022-08-26T13:39:35.113Z,47.50
2022-08-26T13:42:02.903Z,47.50
2022-08-26T13:44:30.654Z,48.14
2022-08-26T13:46:58.347Z,47.93
2022-08-26T13:49:26.193Z,47.08
2022-08-26T13:51:54.158Z,48.20
2022-08-26T13:54:21.889Z,47.10
2022-08-26T13:56:49.577Z,48.10
2022-08-26T13:59:17.469Z,48.12
2022-08-26T14:01:45.184Z,46.64
2022-08-26T14:04:12.907Z,47.85
2022-08-26T14:06:40.706Z,47.61
2022-08-26T14:09:08.451Z,47.43
2022-08-26T14:11:53.866Z,47.01
2022-08-26T14:14:22.847Z,48.07
2022-08-26T14:16:58.938Z,45.85
2022-08-26T14:19:31.613Z,45.57
2022-08-26T14:22:01.389Z,46.51
2022-08-26T14:24:29.817Z,46.40
2022-08-26T14:26:57.665Z,47.05
2022-08-26T14:29:26.214Z,46.75
2022-08-26T14:31:56.929Z,46.37
2022-08-26T14:34:25.344Z,43.89
2022-08-26T14:36:53.014Z,44.76
2022-08-26T14:39:20.715Z,45.65
2022-08-26T14:41:55.127Z,45.49
2022-08-26T14:44:30.633Z,45.59
2022-08-26T14:47:02.600Z,45.78
2022-08-26T14:49:31.534Z,45.27
2022-08-26T14:51:59.397Z,45.43
2022-08-26T14:54:29.279Z,45.98
2022-08-26T14:57:03.644Z,45.56
2022-08-26T14:59:41.114Z,45.83
2022-08-26T15:02:22.227Z,46.36
2022-08-26T15:05:02.168Z,46.74
2022-08-26T15:07:30.186Z,47.50
2022-08-26T15:09:58.018Z,47.87
2022-08-26T15:12:26.319Z,48.02
2022-08-26T15:14:54.017Z,47.69
2022-08-26T15:17:21.766Z,47.70
2022-08-26T15:19:49.602Z,48.22
2022-08-26T15:22:17.366Z,47.86
2022-08-26T15:24:45.223Z,48.93
2022-08-26T15:27:12.964Z,48.35
2022-08-26T15:29:41.489Z,48.66
2022-08-26T15:32:09.685Z,48.08
2022-08-26T15:34:37.732Z,47.32
2022-08-26T15:37:06.382Z,48.93
2022-08-26T15:39:34.601Z,48.98
2022-08-26T15:42:03.215Z,48.96
2022-08-26T15:44:30.970Z,48.72
2022-08-26T15:46:59.186Z,49.24
2022-08-26T15:49:27.681Z,49.69
2022-08-26T15:51:55.742Z,49.70
2022-08-26T15:54:24.568Z,49.64
2022-08-26T15:56:53.040Z,49.92
2022-08-26T15:59:22.659Z,50.11
2022-08-26T16:01:51.990Z,50.05
2022-08-26T16:04:20.289Z,50.83
2022-08-26T16:06:51.457Z,50.67
2022-08-26T16:09:24.297Z,50.54
2022-08-26T16:11:56.238Z,51.57
2022-08-26T16:14:24.843Z,51.25
2022-08-26T16:16:53.393Z,51.01
2022-08-26T16:19:21.402Z,50.93
2022-08-26T16:21:51.281Z,51.91
2022-08-26T16:24:27.133Z,52.46
2022-08-26T16:26:58.001Z,51.43
2022-08-26T16:29:25.765Z,50.80
2022-08-26T16:31:54.695Z,51.10
2022-08-26T16:34:22.857Z,51.43
2022-08-26T16:36:50.710Z,51.78
2022-08-26T16:39:18.535Z,51.58
2022-08-26T16:41:46.367Z,51.58
2022-08-26T16:44:14.138Z,51.16
2022-08-26T16:46:42.215Z,51.15
2022-08-26T16:49:10.043Z,50.98
2022-08-26T16:51:38.525Z,50.94
2022-08-26T16:54:08.720Z,51.20
2022-08-26T16:56:38.134Z,50.85
2022-08-26T16:59:11.437Z,51.48
2022-08-26T17:01:39.280Z,52.27
2022-08-26T17:04:07.197Z,51.71
2022-08-26T17:06:34.899Z,51.48
2022-08-26T17:09:03.075Z,51.43
2022-08-26T17:11:31.029Z,50.91
2022-08-26T17:13:59.237Z,51.48
2022-08-26T17:16:27.550Z,51.63
2022-08-26T17:18:59.789Z,51.72
2022-08-26T17:21:28.573Z,51.85
2022-08-26T17:23:56.558Z,52.48
2022-08-26T17:26:24.325Z,52.30
2022-08-26T17:28:53.044Z,52.16
2022-08-26T17:31:22.958Z,52.41
2022-08-26T17:33:53.749Z,52.58
2022-08-26T17:36:27.662Z,52.74
2022-08-26T17:38:58.380Z,53.01
2022-08-26T17:41:27.734Z,52.89
2022-08-26T17:43:55.950Z,52.89
2022-08-26T17:46:24.519Z,52.60
2022-08-26T17:48:52.664Z,52.89
2022-08-26T17:51:22.621Z,53.20
2022-08-26T17:53:51.735Z,53.63
2022-08-26T17:56:26.333Z,53.43
2022-08-26T17:59:04.111Z,53.63
2022-08-26T18:01:33.002Z,54.05
2022-08-26T18:04:01.621Z,54.39
2022-08-26T18:06:30.635Z,54.63
2022-08-26T18:08:59.873Z,54.64
2022-08-26T18:11:29.445Z,55.44
2022-08-26T18:13:57.838Z,55.82
2022-08-26T18:16:26.278Z,56.18
2022-08-26T18:18:54.608Z,57.34
2022-08-26T18:21:25.986Z,57.87
2022-08-26T18:23:54.793Z,58.42
2022-08-26T18:26:33.710Z,58.68
2022-08-26T18:29:02.012Z,58.89
2022-08-26T18:31:30.746Z,58.77
2022-08-26T18:34:01.294Z,58.78
2022-08-26T18:36:36.698Z,58.82
2022-08-26T18:39:06.629Z,59.32
2022-08-26T18:41:44.417Z,59.91
2022-08-26T18:44:15.003Z,60.11
2022-08-26T18:46:45.561Z,60.28
2022-08-26T18:49:16.085Z,60.40
2022-08-26T18:51:45.412Z,60.39
2022-08-26T18:54:14.142Z,60.45
2022-08-26T18:56:42.430Z,60.50
2022-08-26T18:59:11.650Z,60.94
2022-08-26T19:01:42.357Z,61.45
2022-08-26T19:04:15.409Z,61.74
2022-08-26T19:06:48.361Z,61.85
2022-08-26T19:09:18.197Z,62.18
2022-08-26T19:11:47.077Z,62.67
2022-08-26T19:14:18.730Z,63.03
2022-08-26T19:16:49.822Z,63.39
2022-08-26T19:19:19.791Z,63.57
2022-08-26T19:21:47.779Z,63.78
2022-08-26T19:24:18.474Z,63.84
2022-08-26T19:26:57.694Z,63.99
2022-08-26T19:29:30.775Z,64.31
2022-08-26T19:31:59.425Z,64.32
2022-08-26T19:34:27.634Z,64.40
2022-08-26T19:36:57.720Z,64.57
2022-08-26T19:39:27.018Z,64.70
2022-08-26T19:41:54.951Z,65.12
2022-08-26T19:44:42.600Z,65.29
2022-08-26T19:47:15.635Z,65.49
2022-08-26T19:49:43.506Z,65.48
2022-08-26T19:52:13.057Z,65.30
2022-08-26T19:54:41.233Z,65.12
2022-08-26T19:57:08.993Z,65.31
2022-08-26T19:59:37.242Z,64.98
2022-08-26T20:02:08.622Z,65.73
2022-08-26T20:04:39.207Z,66.20
2022-08-26T20:07:07.082Z,66.41
2022-08-26T20:09:36.077Z,66.67
2022-08-26T20:12:06.934Z,67.01
2022-08-26T20:14:35.777Z,67.62
2022-08-26T20:17:05.715Z,68.07
2022-08-26T20:19:52.197Z,68.38
2022-08-26T20:22:20.978Z,68.57
2022-08-26T20:24:49.391Z,68.87
2022-08-26T20:27:17.102Z,69.49
2022-08-26T20:29:44.852Z,69.28
2022-08-26T20:32:12.680Z,68.97
2022-08-26T20:34:40.440Z,68.99
2022-08-26T20:37:08.466Z,69.33
2022-08-26T20:39:36.566Z,69.34
2022-08-26T20:42:06.591Z,69.05
2022-08-26T20:44:54.786Z,68.90
2022-08-26T20:47:23.316Z,68.81
2022-08-26T20:49:52.231Z,69.13
2022-08-26T20:52:20.603Z,69.14
2022-08-26T20:54:48.629Z,69.55
2022-08-26T20:57:16.352Z,69.68
2022-08-26T20:59:44.116Z,70.07
2022-08-26T21:02:11.854Z,70.46
2022-08-26T21:04:40.372Z,70.78
2022-08-26T21:07:08.094Z,71.02
2022-08-26T21:09:35.940Z,71.31
2022-08-26T21:12:05.676Z,71.66
2022-08-26T21:14:33.439Z,71.64
2022-08-26T21:17:01.222Z,71.74
2022-08-26T21:19:28.901Z,72.10
2022-08-26T21:21:56.662Z,72.71
2022-08-26T21:24:24.521Z,73.03
2022-08-26T21:26:52.203Z,73.09
2022-08-26T21:29:21.959Z,73.34
2022-08-26T21:31:49.915Z,73.60
2022-08-26T21:34:19.245Z,73.98
2022-08-26T21:36:48.002Z,73.93
2022-08-26T21:39:17.084Z,74.23
2022-08-26T21:41:45.804Z,74.24
2022-08-26T21:44:16.497Z,74.48
2022-08-26T21:46:46.414Z,74.54
2022-08-26T21:49:16.501Z,74.88
2022-08-26T21:51:48.101Z,75.24
2022-08-26T21:54:15.939Z,75.44
2022-08-26T21:56:47.096Z,75.72
2022-08-26T21:59:17.986Z,76.11
2022-08-26T22:01:46.175Z,76.16
2022-08-26T22:04:14.911Z,76.10
2022-08-26T22:06:48.738Z,75.98
2022-08-26T22:09:22.124Z,76.03
2022-08-26T22:11:51.714Z,76.02
2022-08-26T22:14:22.287Z,76.20
2022-08-26T22:16:50.527Z,76.53
2022-08-26T22:19:23.608Z,76.67
2022-08-26T22:21:54.743Z,76.78
2022-08-26T22:24:25.742Z,77.05
2022-08-26T22:26:55.166Z,77.11
2022-08-26T22:29:25.062Z,77.44
2022-08-26T22:31:53.387Z,77.49
2022-08-26T22:34:23.094Z,77.72
2022-08-26T22:36:50.988Z,77.87
2022-08-26T22:39:23.050Z,78.03
2022-08-26T22:41:53.403Z,78.01
2022-08-26T22:44:22.194Z,77.83
2022-08-26T22:46:54.220Z,77.50
2022-08-26T22:49:23.199Z,77.84
2022-08-26T22:51:51.101Z,77.73
2022-08-26T22:54:19.291Z,77.70
2022-08-26T22:56:47.117Z,77.54
2022-08-26T22:59:16.196Z,77.87
2022-08-26T23:01:44.681Z,77.97
2022-08-26T23:04:12.882Z,77.95
2022-08-26T23:06:47.459Z,78.15
2022-08-26T23:09:18.585Z,78.14
2022-08-26T23:11:48.343Z,78.26
2022-08-26T23:14:18.344Z,78.42
2022-08-26T23:16:47.385Z,78.45
2022-08-26T23:19:20.989Z,78.50
2022-08-26T23:21:50.448Z,78.57
2022-08-26T23:24:18.398Z,78.76
2022-08-26T23:26:46.696Z,78.88
2022-08-26T23:29:15.570Z,78.84
2022-08-26T23:31:43.771Z,78.97
2022-08-26T23:34:30.579Z,78.90
2022-08-26T23:37:00.935Z,78.89
2022-08-26T23:39:32.257Z,78.73
2022-08-26T23:42:02.572Z,78.60
2022-08-26T23:44:31.241Z,78.60
2022-08-26T23:47:00.015Z,78.74
2022-08-26T23:49:29.190Z,78.77
2022-08-26T23:52:16.261Z,78.98
2022-08-26T23:54:45.290Z,78.91
2022-08-26T23:57:13.042Z,78.76
2022-08-26T23:59:41.018Z,78.82
